In Rescue
 
Open Full Screen Window  High Contrast Mode
Wind Gusting 00 knots
04
November 18, 2018 5:00 AM EST
Weather Information
Wind Direction
  130 °
Wind Speed
  04 kt (5 mph)
Wind Gust
  00 kt (0 mph)
Altimeter
30.20 in
Visibility
10 SM
Temperature
03° C
37° F
Dewpoint
01° C
34° F
Humidity
87%
1hr Rain Fall
00.00 in.
24hr Rain Fall
00.00 in.
Sky Condition
Overcast @ 5,000 ft
Scattered @ 4,500 ft
VFR

METAR KI69 181000Z AUTO 13004KT 10SM SCT045 OVC050 03/01 A3020 RMK AO2 T00250010

FAA Disclaimer: The data displayed is for advisory purposes only and is not to be used for flight planning or operations.